createdAt,value
2022-11-04T00:02:44.985Z,92.49
2022-11-04T00:05:50.243Z,92.92
2022-11-04T00:08:56.651Z,92.60
2022-11-04T00:12:18.864Z,92.55
2022-11-04T00:15:40.360Z,92.45
2022-11-04T00:18:47.246Z,91.86
2022-11-04T00:22:10.112Z,91.51
2022-11-04T00:25:32.909Z,90.61
2022-11-04T00:28:47.365Z,90.72
2022-11-04T00:32:08.941Z,90.51
2022-11-04T00:35:16.709Z,90.75
2022-11-04T00:38:22.430Z,90.41
2022-11-04T00:41:31.156Z,90.17
2022-11-04T00:44:37.014Z,90.26
2022-11-04T00:47:43.834Z,89.53
2022-11-04T00:50:54.866Z,89.65
2022-11-04T00:54:00.934Z,90.54
2022-11-04T00:57:05.757Z,91.47
2022-11-04T01:00:11.718Z,92.58
2022-11-04T01:03:16.828Z,91.84
2022-11-04T01:06:24.030Z,92.92
2022-11-04T01:09:28.747Z,92.81
2022-11-04T01:12:33.257Z,91.74
2022-11-04T01:15:39.115Z,91.19
2022-11-04T01:18:44.194Z,90.96
2022-11-04T01:21:53.075Z,91.03
2022-11-04T01:24:58.527Z,89.96
2022-11-04T01:28:03.286Z,89.99
2022-11-04T01:31:09.049Z,90.21
2022-11-04T01:34:14.249Z,90.97
2022-11-04T01:37:20.421Z,90.77
2022-11-04T01:40:24.953Z,90.83
2022-11-04T01:43:46.367Z,91.75
2022-11-04T01:46:54.969Z,91.89
2022-11-04T01:50:05.416Z,91.45
2022-11-04T01:53:16.896Z,91.45
2022-11-04T01:56:21.685Z,91.29
2022-11-04T01:59:29.963Z,91.79
2022-11-04T02:02:35.125Z,91.61
2022-11-04T02:05:40.623Z,91.81
2022-11-04T02:08:47.556Z,92.10
2022-11-04T02:12:09.057Z,92.73
2022-11-04T02:15:13.915Z,92.41
2022-11-04T02:18:40.794Z,90.43
2022-11-04T02:22:15.657Z,89.19
2022-11-04T02:26:11.816Z,87.50
2022-11-04T02:29:48.150Z,87.69
2022-11-04T02:33:17.125Z,86.02
2022-11-04T02:36:32.828Z,86.10
2022-11-04T02:39:47.613Z,85.34
2022-11-04T02:42:58.549Z,85.25
2022-11-04T02:46:09.062Z,84.83
2022-11-04T02:49:16.660Z,83.84
2022-11-04T02:52:28.058Z,85.11
2022-11-04T02:55:39.377Z,85.09
2022-11-04T02:58:49.676Z,84.73
2022-11-04T03:01:58.521Z,84.81
2022-11-04T03:05:08.957Z,85.10
2022-11-04T03:08:18.712Z,83.48
2022-11-04T03:11:25.594Z,83.06
2022-11-04T03:14:37.880Z,83.47
2022-11-04T03:17:51.222Z,83.46
2022-11-04T03:21:00.659Z,83.75
2022-11-04T03:24:06.535Z,83.36
2022-11-04T03:27:18.153Z,83.83
2022-11-04T03:30:25.727Z,84.27
2022-11-04T03:33:40.242Z,85.77
2022-11-04T03:36:44.871Z,86.74
2022-11-04T03:39:49.373Z,86.51
2022-11-04T03:42:58.957Z,87.65
2022-11-04T03:46:03.822Z,87.85
2022-11-04T03:49:11.528Z,87.88
2022-11-04T03:52:16.965Z,87.99
2022-11-04T03:55:23.449Z,88.17
2022-11-04T03:58:39.330Z,88.49
2022-11-04T04:01:52.405Z,89.54
2022-11-04T04:05:01.860Z,89.65
2022-11-04T04:08:18.101Z,89.62
2022-11-04T04:11:31.563Z,90.52
2022-11-04T04:14:41.329Z,90.04
2022-11-04T04:17:52.637Z,90.49
2022-11-04T04:21:01.791Z,90.87
2022-11-04T04:24:25.923Z,91.05
2022-11-04T04:27:33.698Z,91.52
2022-11-04T04:30:39.065Z,91.28
2022-11-04T04:33:43.713Z,91.86
2022-11-04T04:36:54.608Z,91.92
2022-11-04T04:40:23.916Z,92.06
2022-11-04T04:43:48.062Z,91.73
2022-11-04T04:46:56.669Z,92.19
2022-11-04T04:50:02.737Z,92.43
2022-11-04T04:53:09.736Z,91.92
2022-11-04T04:56:14.646Z,92.35
2022-11-04T04:59:19.503Z,92.66
2022-11-04T05:02:25.029Z,92.68
2022-11-04T05:05:29.620Z,92.53
2022-11-04T05:08:36.953Z,92.72
2022-11-04T05:11:41.746Z,92.96
2022-11-04T05:14:46.612Z,92.82
2022-11-04T05:17:56.156Z,93.11
2022-11-04T05:21:00.665Z,93.27
2022-11-04T05:24:07.910Z,93.07
2022-11-04T05:27:13.182Z,92.82
2022-11-04T05:30:18.131Z,92.94
2022-11-04T05:33:25.044Z,92.85
2022-11-04T05:36:29.744Z,93.12
2022-11-04T05:39:35.998Z,93.59
2022-11-04T05:42:43.449Z,93.05
2022-11-04T05:45:47.955Z,92.45
2022-11-04T05:48:53.200Z,92.34
2022-11-04T05:51:58.904Z,92.75
2022-11-04T05:55:05.286Z,92.98
2022-11-04T05:58:10.751Z,92.80
2022-11-04T06:01:24.925Z,92.71
2022-11-04T06:04:31.802Z,92.79
2022-11-04T06:07:36.540Z,92.99
2022-11-04T06:10:42.505Z,93.53
2022-11-04T06:13:47.288Z,93.71
2022-11-04T06:16:51.892Z,93.89
2022-11-04T06:19:56.823Z,93.89
2022-11-04T06:23:01.723Z,93.99
2022-11-04T06:26:08.307Z,94.33
2022-11-04T06:29:13.456Z,94.17
2022-11-04T06:32:20.373Z,93.76
2022-11-04T06:35:25.254Z,93.83
2022-11-04T06:38:32.710Z,94.20
2022-11-04T06:41:38.711Z,94.07
2022-11-04T06:44:43.741Z,94.20
2022-11-04T06:47:49.862Z,93.62
2022-11-04T06:50:55.418Z,93.71
2022-11-04T06:54:00.383Z,94.26
2022-11-04T06:57:07.132Z,94.00
2022-11-04T07:00:13.601Z,94.05
2022-11-04T07:03:19.000Z,94.17
2022-11-04T07:06:24.529Z,94.66
2022-11-04T07:09:29.293Z,94.70
2022-11-04T07:12:35.929Z,94.79
2022-11-04T07:15:41.153Z,94.37
2022-11-04T07:18:45.601Z,93.88
2022-11-04T07:21:55.414Z,94.41
2022-11-04T07:25:05.706Z,94.82
2022-11-04T07:29:00.362Z,94.74
2022-11-04T08:00:29.616Z,95.12
2022-11-04T08:03:57.639Z,94.11
2022-11-04T08:11:48.871Z,93.41
2022-11-04T08:15:35.640Z,92.84
2022-11-04T08:23:16.238Z,90.70
2022-11-04T08:26:43.327Z,90.17
2022-11-04T08:57:57.856Z,84.63
2022-11-04T09:34:15.003Z,81.93
2022-11-04T10:15:43.364Z,70.72
2022-11-04T10:19:28.994Z,70.85
2022-11-04T10:23:05.203Z,70.11
2022-11-04T10:27:34.535Z,68.91
2022-11-04T10:31:02.179Z,70.80
2022-11-04T10:34:46.832Z,72.45
2022-11-04T10:38:44.016Z,70.89
2022-11-04T10:42:29.826Z,71.96
2022-11-04T10:46:00.873Z,70.81
2022-11-04T10:57:13.767Z,69.96
2022-11-04T11:04:44.122Z,69.32
2022-11-04T11:08:20.172Z,70.01
2022-11-04T11:12:48.648Z,70.16
2022-11-04T11:16:08.043Z,70.00
2022-11-04T11:19:41.244Z,70.58
2022-11-04T11:23:21.053Z,70.33
2022-11-04T11:33:54.139Z,70.00
2022-11-04T11:37:52.982Z,70.08
2022-11-04T11:45:37.019Z,68.52
2022-11-04T12:02:08.632Z,70.32
2022-11-04T12:09:44.348Z,69.56
2022-11-04T12:34:24.944Z,69.22
2022-11-04T12:42:41.825Z,68.47
2022-11-04T12:46:29.343Z,68.97
2022-11-04T12:54:38.769Z,69.37
2022-11-04T12:58:37.420Z,68.45
2022-11-04T13:05:58.968Z,69.43
2022-11-04T13:09:54.130Z,68.39
2022-11-04T13:13:25.539Z,68.96
2022-11-04T13:17:08.381Z,70.24
2022-11-04T13:21:02.500Z,71.71
2022-11-04T13:28:21.902Z,72.77
2022-11-04T13:32:06.728Z,75.74
2022-11-04T13:35:32.246Z,76.11
2022-11-04T13:43:30.761Z,80.76
2022-11-04T13:47:20.690Z,82.93
2022-11-04T13:50:52.315Z,83.00
2022-11-04T13:54:23.089Z,82.79
2022-11-04T14:01:40.711Z,85.77
2022-11-04T14:15:13.915Z,81.89
2022-11-04T14:22:35.029Z,84.75
2022-11-04T14:29:52.560Z,84.88
2022-11-04T14:32:58.163Z,86.31
2022-11-04T14:36:30.927Z,87.64
2022-11-04T14:39:37.948Z,87.71
2022-11-04T14:42:47.325Z,87.58
2022-11-04T14:45:51.543Z,88.51
2022-11-04T14:48:57.054Z,88.43
2022-11-04T14:51:59.982Z,87.45
2022-11-04T14:55:06.627Z,88.37
2022-11-04T14:58:23.811Z,89.81
2022-11-04T15:01:34.663Z,90.46
2022-11-04T15:04:37.992Z,89.46
2022-11-04T15:07:41.290Z,89.93
2022-11-04T15:10:43.948Z,90.62
2022-11-04T15:13:49.311Z,90.16
2022-11-04T15:16:55.982Z,89.33
2022-11-04T15:20:01.764Z,89.79
2022-11-04T15:23:08.135Z,90.58
2022-11-04T15:26:26.476Z,90.13
2022-11-04T15:29:32.045Z,90.09
2022-11-04T15:32:36.120Z,90.89
2022-11-04T15:35:43.340Z,91.25
2022-11-04T15:38:50.189Z,89.87
2022-11-04T15:42:15.931Z,89.81
2022-11-04T15:45:31.645Z,91.47
2022-11-04T15:48:37.839Z,92.50
2022-11-04T15:51:42.621Z,92.98
2022-11-04T15:54:48.437Z,93.18
2022-11-04T15:57:52.203Z,93.29
2022-11-04T16:00:55.991Z,93.90
2022-11-04T16:04:02.660Z,93.95
2022-11-04T16:07:21.416Z,94.61
2022-11-04T16:10:30.064Z,94.29
2022-11-04T16:13:33.104Z,95.47
2022-11-04T16:16:35.960Z,95.65
2022-11-04T16:19:40.208Z,95.89
2022-11-04T16:22:44.122Z,96.10
2022-11-04T16:25:46.845Z,97.16
2022-11-04T16:28:54.806Z,97.56
2022-11-04T16:32:18.457Z,97.30
2022-11-04T16:35:24.754Z,97.60
2022-11-04T16:38:27.425Z,97.52
2022-11-04T16:41:33.062Z,97.81
2022-11-04T16:44:35.739Z,97.95
2022-11-04T16:47:40.883Z,97.98
2022-11-04T16:50:45.195Z,98.38
2022-11-04T16:53:49.744Z,98.20
2022-11-04T16:56:52.508Z,98.48
2022-11-04T16:59:56.556Z,98.83
2022-11-04T17:02:59.367Z,99.53
2022-11-04T17:06:03.319Z,99.37
2022-11-04T17:09:13.677Z,99.42
2022-11-04T17:12:16.344Z,99.04
2022-11-04T17:15:19.227Z,99.40
2022-11-04T17:18:21.836Z,99.50
2022-11-04T17:21:26.289Z,99.68
2022-11-04T17:24:29.210Z,99.59
2022-11-04T17:27:31.818Z,100.00
2022-11-04T17:30:35.051Z,100.00
2022-11-04T17:33:37.717Z,99.79
2022-11-04T17:36:41.759Z,100.00
2022-11-04T17:39:44.408Z,100.00
2022-11-04T17:43:11.298Z,100.00
2022-11-04T17:46:32.637Z,100.00
2022-11-04T17:49:37.169Z,99.60
2022-11-04T17:52:42.117Z,99.36
2022-11-04T17:55:44.837Z,99.72
2022-11-04T17:58:48.181Z,98.94
2022-11-04T18:01:51.002Z,98.96
2022-11-04T18:04:53.782Z,99.15
2022-11-04T18:07:58.470Z,99.73
2022-11-04T18:11:02.708Z,99.56
2022-11-04T18:14:05.695Z,99.49
2022-11-04T18:17:08.339Z,100.00
2022-11-04T18:20:14.738Z,100.00
2022-11-04T18:23:18.730Z,100.00
2022-11-04T18:26:21.385Z,99.85
2022-11-04T18:29:24.139Z,100.00
2022-11-04T18:32:26.820Z,100.00
2022-11-04T18:35:29.696Z,100.00
2022-11-04T18:38:34.018Z,100.00
2022-11-04T18:41:36.803Z,100.00
2022-11-04T18:44:39.413Z,100.00
2022-11-04T18:47:42.068Z,100.00
2022-11-04T18:50:45.472Z,100.00
2022-11-04T18:53:49.716Z,100.00
2022-11-04T18:56:52.370Z,100.00
2022-11-04T18:59:55.137Z,100.00
2022-11-04T19:02:57.961Z,100.00
2022-11-04T19:06:06.068Z,100.00
2022-11-04T19:09:45.551Z,100.00
2022-11-04T19:12:52.138Z,100.00
2022-11-04T19:15:54.851Z,100.00
2022-11-04T19:18:59.796Z,100.00
2022-11-04T19:22:02.459Z,100.00
2022-11-04T19:25:07.507Z,100.00
2022-11-04T19:28:34.733Z,100.00
2022-11-04T19:31:36.219Z,99.91
2022-11-04T19:34:38.829Z,99.86
2022-11-04T19:37:41.816Z,100.00
2022-11-04T19:40:51.715Z,100.00
2022-11-04T19:43:53.687Z,100.00
2022-11-04T19:46:56.372Z,100.00
2022-11-04T19:49:58.999Z,100.00
2022-11-04T19:53:01.873Z,100.00
2022-11-04T19:56:06.463Z,100.00
2022-11-04T19:59:10.087Z,99.34
2022-11-04T20:02:15.110Z,99.26
2022-11-04T20:05:18.104Z,99.84
2022-11-04T20:08:20.744Z,99.81
2022-11-04T20:11:24.738Z,99.47
2022-11-04T20:14:28.664Z,99.83
2022-11-04T20:17:32.619Z,99.99
2022-11-04T20:20:36.579Z,99.61
2022-11-04T20:23:39.301Z,99.81
2022-11-04T20:26:44.128Z,100.00
2022-11-04T20:29:46.781Z,100.00
2022-11-04T20:32:49.559Z,100.00
2022-11-04T20:35:52.316Z,100.00
2022-11-04T20:38:57.244Z,100.00
2022-11-04T20:42:01.590Z,100.00
2022-11-04T20:45:05.120Z,100.00
2022-11-04T20:48:08.298Z,100.00
2022-11-04T20:51:13.660Z,100.00
2022-11-04T20:54:16.966Z,100.00
2022-11-04T20:57:21.590Z,100.00
2022-11-04T21:00:24.368Z,100.00
2022-11-04T21:03:27.265Z,100.00
2022-11-04T21:06:30.651Z,100.00
2022-11-04T21:09:33.434Z,100.00
2022-11-04T21:12:37.648Z,100.00
2022-11-04T21:15:44.094Z,100.00
2022-11-04T21:18:46.749Z,100.00
2022-11-04T21:21:49.389Z,100.00
2022-11-04T21:24:52.112Z,100.00
2022-11-04T21:27:56.257Z,100.00
2022-11-04T21:31:04.505Z,100.00
2022-11-04T21:34:07.413Z,100.00
2022-11-04T21:37:10.076Z,100.00
2022-11-04T21:40:13.387Z,100.00
2022-11-04T21:43:17.380Z,100.00
2022-11-04T21:46:20.130Z,100.00
2022-11-04T21:49:54.080Z,100.00
2022-11-04T21:52:58.117Z,100.00
2022-11-04T21:56:05.912Z,100.00
2022-11-04T21:59:16.963Z,100.00
2022-11-04T22:02:21.060Z,100.00
2022-11-04T22:05:23.820Z,100.00
2022-11-04T22:08:26.500Z,100.00
2022-11-04T22:11:31.260Z,100.00
2022-11-04T22:14:35.238Z,100.00
2022-11-04T22:17:38.009Z,99.87
2022-11-04T22:20:40.616Z,99.35
2022-11-04T22:23:43.980Z,99.12
2022-11-04T22:26:47.599Z,99.30
2022-11-04T22:29:51.664Z,99.61
2022-11-04T22:32:54.466Z,99.89
2022-11-04T22:35:57.126Z,99.81
2022-11-04T22:39:00.281Z,99.89
2022-11-04T22:42:03.160Z,99.82
2022-11-04T22:45:13.837Z,99.30
2022-11-04T22:48:19.393Z,99.31
2022-11-04T22:51:22.101Z,98.22
2022-11-04T22:54:24.790Z,98.21
2022-11-04T22:57:27.505Z,97.87
2022-11-04T23:00:31.852Z,98.19
2022-11-04T23:03:34.609Z,98.01
2022-11-04T23:06:37.334Z,98.78
2022-11-04T23:10:00.031Z,99.22
2022-11-04T23:13:20.375Z,98.59
2022-11-04T23:16:56.970Z,98.86
2022-11-04T23:20:00.525Z,98.38
2022-11-04T23:23:20.764Z,98.34
2022-11-04T23:26:27.516Z,98.38
2022-11-04T23:29:47.872Z,97.96
2022-11-04T23:32:53.209Z,98.03
2022-11-04T23:36:13.298Z,98.03
2022-11-04T23:39:16.717Z,98.58
2022-11-04T23:42:21.293Z,98.51
2022-11-04T23:45:41.998Z,98.51
2022-11-04T23:49:03.967Z,98.66
2022-11-04T23:52:24.022Z,99.41
2022-11-04T23:55:44.131Z,99.44
2022-11-04T23:59:05.466Z,99.93
